createdAt,value
2017-10-22T00:00:37.367Z,94180.76
2017-10-22T00:03:05.144Z,94185.53
2017-10-22T00:05:32.863Z,94176.20
2017-10-22T00:08:00.641Z,94172.98
2017-10-22T00:10:28.361Z,94175.97
2017-10-22T00:12:56.115Z,94175.77
2017-10-22T00:15:23.873Z,94171.92
2017-10-22T00:17:51.580Z,94170.72
2017-10-22T00:20:19.329Z,94182.11
2017-10-22T00:22:47.006Z,94182.20
2017-10-22T00:25:14.709Z,94185.71
2017-10-22T00:27:42.460Z,94187.80
2017-10-22T00:30:10.149Z,94189.02
2017-10-22T00:32:37.915Z,94188.90
2017-10-22T00:35:05.655Z,94190.30
2017-10-22T00:37:33.404Z,94185.53
2017-10-22T00:40:01.144Z,94177.17
2017-10-22T00:42:28.853Z,94179.38
2017-10-22T00:44:56.581Z,94169.44
2017-10-22T00:47:24.301Z,94166.93
2017-10-22T00:49:52.049Z,94170.91
2017-10-22T00:52:19.781Z,94171.10
2017-10-22T00:54:47.499Z,94171.92
2017-10-22T00:57:15.262Z,94174.09
2017-10-22T00:59:42.966Z,94175.40
2017-10-22T01:02:10.720Z,94169.13
2017-10-22T01:04:38.436Z,94166.95
2017-10-22T01:07:06.319Z,94176.09
2017-10-22T01:09:34.043Z,94179.94
2017-10-22T01:12:01.808Z,94183.41
2017-10-22T01:14:29.634Z,94180.16
2017-10-22T01:16:57.414Z,94179.45
2017-10-22T01:19:25.244Z,94181.56
2017-10-22T01:21:53.038Z,94183.23
2017-10-22T01:24:20.800Z,94182.55
2017-10-22T01:26:48.581Z,94175.09
2017-10-22T01:29:16.436Z,94175.78
2017-10-22T01:31:44.218Z,94178.74
2017-10-22T01:34:11.948Z,94176.16
2017-10-22T01:36:39.729Z,94173.27
2017-10-22T01:39:07.504Z,94168.41
2017-10-22T01:41:35.288Z,94172.38
2017-10-22T01:44:03.036Z,94171.48
2017-10-22T01:46:30.802Z,94169.50
2017-10-22T01:48:58.566Z,94172.19
2017-10-22T01:51:26.307Z,94178.75
2017-10-22T01:53:54.106Z,94177.36
2017-10-22T01:56:21.853Z,94181.63
2017-10-22T01:58:49.670Z,94181.73
2017-10-22T02:01:17.467Z,94185.91
2017-10-22T02:03:45.195Z,94178.55
2017-10-22T02:06:12.915Z,94177.52
2017-10-22T02:08:40.733Z,94184.89
2017-10-22T02:11:08.529Z,94185.58
2017-10-22T02:13:36.320Z,94186.08
2017-10-22T02:16:04.502Z,94190.95
2017-10-22T02:18:32.229Z,94184.29
2017-10-22T02:21:00.016Z,94188.97
2017-10-22T02:23:27.720Z,94189.56
2017-10-22T02:25:55.461Z,94193.20
2017-10-22T02:28:23.237Z,94197.62
2017-10-22T02:30:50.945Z,94189.06
2017-10-22T02:33:18.767Z,94188.83
2017-10-22T02:35:46.502Z,94180.87
2017-10-22T02:38:14.288Z,94176.58
2017-10-22T02:40:42.056Z,94181.56
2017-10-22T02:43:09.765Z,94190.66
2017-10-22T02:45:37.680Z,94187.14
2017-10-22T02:48:05.391Z,94186.34
2017-10-22T02:50:33.249Z,94181.95
2017-10-22T02:53:00.985Z,94179.26
2017-10-22T02:55:28.741Z,94187.03
2017-10-22T02:57:56.470Z,94183.91
2017-10-22T03:00:24.263Z,94188.81
2017-10-22T03:02:52.059Z,94193.59
2017-10-22T03:05:19.781Z,94198.67
2017-10-22T03:07:47.563Z,94203.22
2017-10-22T03:10:15.305Z,94201.23
2017-10-22T03:12:43.162Z,94211.67
2017-10-22T03:15:10.876Z,94211.59
2017-10-22T03:17:38.595Z,94213.48
2017-10-22T03:20:06.319Z,94210.75
2017-10-22T03:22:33.994Z,94207.86
2017-10-22T03:25:01.711Z,94202.78
2017-10-22T03:27:29.423Z,94206.25
2017-10-22T03:29:57.159Z,94201.87
2017-10-22T03:32:24.857Z,94207.60
2017-10-22T03:34:52.625Z,94206.20
2017-10-22T03:37:20.376Z,94214.16
2017-10-22T03:39:48.080Z,94214.09
2017-10-22T03:42:15.828Z,94212.79
2017-10-22T03:44:43.563Z,94208.49
2017-10-22T03:47:11.249Z,94206.81
2017-10-22T03:49:39.045Z,94195.45
2017-10-22T03:52:06.773Z,94197.14
2017-10-22T03:54:34.482Z,94195.44
2017-10-22T03:57:02.165Z,94195.92
2017-10-22T03:59:29.900Z,94197.31
2017-10-22T04:01:57.586Z,94196.16
2017-10-22T04:04:25.343Z,94201.32
2017-10-22T04:06:53.041Z,94199.91
2017-10-22T04:09:20.842Z,94200.59
2017-10-22T04:11:48.568Z,94198.00
2017-10-22T04:14:16.298Z,94199.61
2017-10-22T04:16:43.992Z,94192.63
2017-10-22T04:19:11.878Z,94190.34
2017-10-22T04:21:39.594Z,94193.53
2017-10-22T04:24:07.294Z,94202.38
2017-10-22T04:26:35.055Z,94206.35
2017-10-22T04:29:02.788Z,94204.47
2017-10-22T04:31:30.791Z,94212.05
2017-10-22T04:33:58.603Z,94216.65
2017-10-22T04:36:26.349Z,94219.23
2017-10-22T04:38:54.054Z,94218.59
2017-10-22T04:41:21.813Z,94216.04
2017-10-22T04:43:49.489Z,94210.61
2017-10-22T04:46:17.173Z,94205.97
2017-10-22T04:48:44.926Z,94209.99
2017-10-22T04:51:12.593Z,94209.78
2017-10-22T04:53:40.328Z,94212.86
2017-10-22T04:56:08.056Z,94210.89
2017-10-22T04:58:35.895Z,94211.98
2017-10-22T05:01:04.542Z,94217.03
2017-10-22T05:03:32.240Z,94228.04
2017-10-22T05:05:59.982Z,94224.27
2017-10-22T05:08:27.820Z,94231.71
2017-10-22T05:10:55.518Z,94237.92
2017-10-22T05:13:23.203Z,94236.73
2017-10-22T05:15:50.961Z,94248.91
2017-10-22T05:18:18.699Z,94241.23
2017-10-22T05:20:46.490Z,94240.83
2017-10-22T05:23:14.254Z,94236.54
2017-10-22T05:25:42.130Z,94247.71
2017-10-22T05:28:09.862Z,94248.22
2017-10-22T05:30:37.613Z,94253.70
2017-10-22T05:33:05.297Z,94254.69
2017-10-22T05:35:32.997Z,94255.20
2017-10-22T05:38:00.854Z,94254.73
2017-10-22T05:40:28.539Z,94262.30
2017-10-22T05:42:56.268Z,94263.80
2017-10-22T05:45:24.061Z,94272.59
2017-10-22T05:47:51.828Z,94278.27
2017-10-22T05:50:19.592Z,94288.55
2017-10-22T05:52:47.386Z,94287.63
2017-10-22T05:55:15.073Z,94293.42
2017-10-22T05:57:42.780Z,94302.00
2017-10-22T06:00:10.548Z,94309.18
2017-10-22T06:02:38.256Z,94311.36
2017-10-22T06:05:05.967Z,94311.57
2017-10-22T06:07:33.679Z,94305.09
2017-10-22T06:10:01.426Z,94307.78
2017-10-22T06:12:29.141Z,94311.27
2017-10-22T06:14:56.934Z,94315.77
2017-10-22T06:17:24.745Z,94317.48
2017-10-22T06:19:52.666Z,94318.07
2017-10-22T06:22:20.603Z,94320.37
2017-10-22T06:24:48.369Z,94331.66
2017-10-22T06:27:16.107Z,94334.06
2017-10-22T06:29:43.794Z,94337.76
2017-10-22T06:32:11.571Z,94338.55
2017-10-22T06:34:39.323Z,94337.45
2017-10-22T06:37:07.079Z,94336.84
2017-10-22T06:39:34.878Z,94341.83
2017-10-22T06:42:02.634Z,94341.91
2017-10-22T06:44:30.453Z,94334.36
2017-10-22T06:46:58.215Z,94336.82
2017-10-22T06:49:27.085Z,94335.92
2017-10-22T06:51:54.829Z,94343.88
2017-10-22T06:54:22.619Z,94346.48
2017-10-22T06:56:50.386Z,94350.19
2017-10-22T06:59:18.266Z,94353.37
2017-10-22T07:01:46.185Z,94363.95
2017-10-22T07:04:13.972Z,94360.16
2017-10-22T07:06:42.609Z,94360.84
2017-10-22T07:09:10.420Z,94365.62
2017-10-22T07:11:38.166Z,94361.39
2017-10-22T07:14:06.578Z,94368.97
2017-10-22T07:16:34.374Z,94366.28
2017-10-22T07:19:02.229Z,94377.22
2017-10-22T07:21:30.063Z,94375.02
2017-10-22T07:23:57.832Z,94379.81
2017-10-22T07:26:25.598Z,94374.63
2017-10-22T07:28:53.338Z,94377.31
2017-10-22T07:31:21.101Z,94374.80
2017-10-22T07:33:48.795Z,94379.02
2017-10-22T07:36:16.576Z,94384.03
2017-10-22T07:38:45.016Z,94381.72
2017-10-22T07:41:12.793Z,94373.95
2017-10-22T07:43:40.541Z,94365.73
2017-10-22T07:46:08.430Z,94365.92
2017-10-22T07:48:36.205Z,94362.86
2017-10-22T07:51:04.018Z,94357.55
2017-10-22T07:53:31.723Z,94351.91
2017-10-22T07:55:59.492Z,94357.47
2017-10-22T07:58:27.193Z,94350.30
2017-10-22T08:00:54.852Z,94353.06
2017-10-22T08:03:22.646Z,94346.59
2017-10-22T08:05:50.397Z,94353.16
2017-10-22T08:08:18.107Z,94351.20
2017-10-22T08:10:45.829Z,94342.48
2017-10-22T08:13:13.640Z,94341.78
2017-10-22T08:15:41.394Z,94333.22
2017-10-22T08:18:09.274Z,94335.33
2017-10-22T08:20:37.114Z,94339.47
2017-10-22T08:23:06.511Z,94335.47
2017-10-22T08:25:34.266Z,94337.39
2017-10-22T08:28:02.124Z,94340.36
2017-10-22T08:30:30.346Z,94339.44
2017-10-22T08:32:58.241Z,94335.88
2017-10-22T08:35:26.015Z,94346.36
2017-10-22T08:37:53.813Z,94341.44
2017-10-22T08:40:21.726Z,94338.59
2017-10-22T08:42:49.487Z,94341.98
2017-10-22T08:45:18.120Z,94349.27
2017-10-22T08:47:46.091Z,94350.08
2017-10-22T08:50:13.801Z,94342.69
2017-10-22T08:52:41.669Z,94347.16
2017-10-22T08:55:09.437Z,94346.19
2017-10-22T08:57:37.363Z,94350.16
2017-10-22T09:00:05.168Z,94342.28
2017-10-22T09:02:32.989Z,94336.06
2017-10-22T09:05:01.677Z,94331.88
2017-10-22T09:07:29.448Z,94324.88
2017-10-22T09:09:57.216Z,94318.16
2017-10-22T09:12:25.026Z,94319.02
2017-10-22T09:14:52.941Z,94320.08
2017-10-22T09:17:20.898Z,94310.26
2017-10-22T09:19:48.657Z,94313.11
2017-10-22T09:22:16.516Z,94311.14
2017-10-22T09:24:44.411Z,94308.55
2017-10-22T09:27:12.340Z,94309.88
2017-10-22T09:29:40.166Z,94310.13
2017-10-22T09:32:07.939Z,94310.08
2017-10-22T09:34:35.696Z,94301.53
2017-10-22T09:37:03.515Z,94299.11
2017-10-22T09:39:31.311Z,94300.01
2017-10-22T09:41:59.271Z,94291.95
2017-10-22T09:44:27.086Z,94295.09
2017-10-22T09:46:54.878Z,94296.39
2017-10-22T09:49:22.629Z,94291.66
2017-10-22T09:51:50.406Z,94287.70
2017-10-22T09:54:18.226Z,94287.14
2017-10-22T09:56:45.982Z,94289.26
2017-10-22T09:59:13.837Z,94282.03
2017-10-22T10:01:41.607Z,94277.77
2017-10-22T10:04:09.424Z,94272.13
2017-10-22T10:06:37.210Z,94271.97
2017-10-22T10:09:05.903Z,94271.50
2017-10-22T10:11:33.706Z,94273.38
2017-10-22T10:14:01.494Z,94275.79
2017-10-22T10:16:29.308Z,94264.92
2017-10-22T10:18:57.121Z,94269.30
2017-10-22T10:21:24.988Z,94272.84
2017-10-22T10:23:52.803Z,94269.95
2017-10-22T10:26:20.778Z,94271.41
2017-10-22T10:28:48.608Z,94269.51
2017-10-22T10:31:16.524Z,94269.13
2017-10-22T10:33:44.391Z,94259.77
2017-10-22T10:36:12.399Z,94247.77
2017-10-22T10:38:40.349Z,94250.47
2017-10-22T10:41:08.995Z,94247.69
2017-10-22T10:43:36.811Z,94244.63
2017-10-22T10:46:04.607Z,94235.98
2017-10-22T10:48:32.408Z,94235.20
2017-10-22T10:51:00.230Z,94225.27
2017-10-22T10:53:28.116Z,94219.44
2017-10-22T10:55:56.007Z,94220.31
2017-10-22T10:58:23.781Z,94216.96
2017-10-22T11:00:51.924Z,94216.07
2017-10-22T11:03:19.753Z,94208.56
2017-10-22T11:05:47.572Z,94206.44
2017-10-22T11:08:15.388Z,94210.05
2017-10-22T11:10:43.174Z,94205.50
2017-10-22T11:13:11.030Z,94207.81
2017-10-22T11:15:38.915Z,94202.14
2017-10-22T11:18:06.680Z,94197.84
2017-10-22T11:20:34.435Z,94193.98
2017-10-22T11:23:02.167Z,94188.92
2017-10-22T11:25:29.935Z,94184.38
2017-10-22T11:27:57.741Z,94178.46
2017-10-22T11:30:25.499Z,94173.91
2017-10-22T11:32:53.274Z,94173.48
2017-10-22T11:35:21.044Z,94170.02
2017-10-22T11:37:48.894Z,94170.13
2017-10-22T11:40:17.451Z,94173.73
2017-10-22T11:42:45.175Z,94174.53
2017-10-22T11:45:12.940Z,94168.64
2017-10-22T11:47:40.789Z,94164.60
2017-10-22T11:50:08.544Z,94168.50
2017-10-22T11:52:36.574Z,94173.30
2017-10-22T11:55:04.406Z,94172.68
2017-10-22T11:57:32.160Z,94177.98
2017-10-22T11:59:59.967Z,94171.52
2017-10-22T12:02:27.978Z,94171.42
2017-10-22T12:04:55.734Z,94169.64
2017-10-22T12:07:23.448Z,94170.87
2017-10-22T12:09:51.719Z,94164.88
2017-10-22T12:12:19.437Z,94166.55
2017-10-22T12:14:47.192Z,94161.78
2017-10-22T12:17:15.473Z,94158.97
2017-10-22T12:19:44.391Z,94153.19
2017-10-22T12:22:13.000Z,94152.87
2017-10-22T12:24:40.759Z,94145.86
2017-10-22T12:27:08.560Z,94137.78
2017-10-22T12:29:36.310Z,94131.43
2017-10-22T12:32:04.151Z,94140.52
2017-10-22T12:34:32.112Z,94135.91
2017-10-22T12:37:00.220Z,94134.03
2017-10-22T12:39:28.440Z,94135.44
2017-10-22T12:41:56.223Z,94133.38
2017-10-22T12:44:23.968Z,94130.56
2017-10-22T12:46:51.791Z,94133.95
2017-10-22T12:49:19.586Z,94126.16
2017-10-22T12:51:47.316Z,94107.87
2017-10-22T12:54:15.109Z,94125.22
2017-10-22T12:56:42.843Z,94122.44
2017-10-22T12:59:10.599Z,94110.90
2017-10-22T13:01:38.469Z,94111.70
2017-10-22T13:04:06.257Z,94120.67
2017-10-22T13:06:34.529Z,94121.00
2017-10-22T13:09:02.296Z,94134.63
2017-10-22T13:11:42.172Z,94127.88
2017-10-22T13:14:09.942Z,94139.28
2017-10-22T13:16:37.655Z,94138.34
2017-10-22T13:19:05.557Z,94140.30
2017-10-22T13:21:33.276Z,94130.69
2017-10-22T13:24:01.051Z,94119.59
2017-10-22T13:26:28.858Z,94111.06
2017-10-22T13:28:57.025Z,94105.77
2017-10-22T13:31:27.112Z,94105.87
2017-10-22T13:33:54.908Z,94097.61
2017-10-22T13:36:23.581Z,94086.06
2017-10-22T13:38:51.331Z,94076.86
2017-10-22T13:41:19.145Z,94065.49
2017-10-22T13:43:47.147Z,94071.06
2017-10-22T13:46:15.706Z,94073.14
2017-10-22T13:48:43.564Z,94082.13
2017-10-22T13:51:11.582Z,94085.98
2017-10-22T13:53:39.368Z,94080.69
2017-10-22T13:56:07.608Z,94078.96
2017-10-22T13:58:35.453Z,94080.61
2017-10-22T14:01:04.458Z,94077.09
2017-10-22T14:03:32.369Z,94077.87
2017-10-22T14:06:00.191Z,94072.85
2017-10-22T14:08:28.258Z,94091.02
2017-10-22T14:10:56.019Z,94078.04
2017-10-22T14:13:23.801Z,94075.03
2017-10-22T14:15:51.532Z,94073.94
2017-10-22T14:18:19.365Z,94079.47
2017-10-22T14:20:47.074Z,94084.53
2017-10-22T14:23:14.907Z,94088.01
2017-10-22T14:25:42.749Z,94092.41
2017-10-22T14:28:10.443Z,94080.57
2017-10-22T14:30:38.234Z,94085.10
2017-10-22T14:33:05.960Z,94082.14
2017-10-22T14:35:33.769Z,94068.55
2017-10-22T14:38:01.553Z,94070.96
2017-10-22T14:40:29.334Z,94057.84
2017-10-22T14:42:57.187Z,94058.81
2017-10-22T14:45:24.943Z,94050.11
2017-10-22T14:47:52.769Z,94052.23
2017-10-22T14:50:20.513Z,94044.53
2017-10-22T14:52:48.362Z,94042.57
2017-10-22T14:55:16.128Z,94050.56
2017-10-22T14:57:44.001Z,94063.91
2017-10-22T15:00:12.061Z,94066.23
2017-10-22T15:02:39.908Z,94073.56
2017-10-22T15:05:07.716Z,94074.36
2017-10-22T15:07:36.408Z,94068.35
2017-10-22T15:10:04.241Z,94086.09
2017-10-22T15:12:32.129Z,94101.14
2017-10-22T15:14:59.944Z,94103.83
2017-10-22T15:17:27.832Z,94099.72
2017-10-22T15:19:55.649Z,94094.66
2017-10-22T15:22:23.667Z,94106.14
2017-10-22T15:24:51.461Z,94115.95
2017-10-22T15:27:19.321Z,94123.42
2017-10-22T15:29:48.346Z,94107.67
2017-10-22T15:32:16.159Z,94100.69
2017-10-22T15:34:45.033Z,94103.23
2017-10-22T15:37:12.867Z,94109.45
2017-10-22T15:39:40.591Z,94098.37
2017-10-22T15:42:08.493Z,94092.72
2017-10-22T15:44:36.275Z,94099.39
2017-10-22T15:47:04.732Z,94101.38
2017-10-22T15:49:32.527Z,94104.55
2017-10-22T15:52:00.725Z,94105.50
2017-10-22T15:54:28.434Z,94102.19
2017-10-22T15:56:56.196Z,94101.69
2017-10-22T15:59:24.093Z,94105.79
2017-10-22T16:01:51.855Z,94104.13
2017-10-22T16:04:19.697Z,94102.66
2017-10-22T16:06:47.460Z,94098.33
2017-10-22T16:09:15.277Z,94093.70
2017-10-22T16:11:43.680Z,94099.65
2017-10-22T16:14:11.513Z,94105.27
2017-10-22T16:16:39.401Z,94107.15
2017-10-22T16:19:07.135Z,94116.11
2017-10-22T16:21:34.882Z,94115.77
2017-10-22T16:24:02.583Z,94114.12
2017-10-22T16:26:30.311Z,94115.42
2017-10-22T16:28:58.161Z,94112.88
2017-10-22T16:31:26.075Z,94111.75
2017-10-22T16:33:53.849Z,94119.01
2017-10-22T16:36:21.563Z,94098.30
2017-10-22T16:38:49.259Z,94089.95
2017-10-22T16:41:17.034Z,94086.59
2017-10-22T16:43:44.739Z,94080.02
2017-10-22T16:46:12.502Z,94074.20
2017-10-22T16:48:40.225Z,94081.04
2017-10-22T16:51:08.053Z,94084.20
2017-10-22T16:53:36.205Z,94091.95
2017-10-22T16:56:04.062Z,94094.07
2017-10-22T16:58:31.787Z,94106.70
2017-10-22T17:00:59.532Z,94104.13
2017-10-22T17:03:27.342Z,94111.10
2017-10-22T17:05:56.296Z,94109.41
2017-10-22T17:08:24.221Z,94112.89
2017-10-22T17:10:52.036Z,94118.27
2017-10-22T17:13:19.892Z,94122.84
2017-10-22T17:15:47.618Z,94119.47
2017-10-22T17:18:16.619Z,94125.17
2017-10-22T17:20:44.421Z,94128.38
2017-10-22T17:23:12.311Z,94134.54
2017-10-22T17:25:40.126Z,94134.13
2017-10-22T17:28:08.028Z,94117.08
2017-10-22T17:30:35.882Z,94117.95
2017-10-22T17:33:03.692Z,94114.98
2017-10-22T17:35:32.411Z,94122.59
2017-10-22T17:38:00.189Z,94117.42
2017-10-22T17:40:27.958Z,94118.42
2017-10-22T17:42:55.721Z,94118.31
2017-10-22T17:45:23.459Z,94116.13
2017-10-22T17:47:51.360Z,94107.66
2017-10-22T17:50:19.299Z,94104.09
2017-10-22T17:52:47.078Z,94107.42
2017-10-22T17:55:15.876Z,94108.77
2017-10-22T17:57:43.678Z,94110.56
2017-10-22T18:00:11.484Z,94114.05
2017-10-22T18:02:39.366Z,94105.34
2017-10-22T18:05:07.210Z,94110.01
2017-10-22T18:07:34.952Z,94115.48
2017-10-22T18:10:02.682Z,94116.28
2017-10-22T18:12:30.536Z,94115.78
2017-10-22T18:14:58.358Z,94116.37
2017-10-22T18:17:26.179Z,94110.12
2017-10-22T18:19:54.018Z,94107.23
2017-10-22T18:22:21.795Z,94114.30
2017-10-22T18:24:49.558Z,94117.37
2017-10-22T18:27:17.342Z,94119.96
2017-10-22T18:29:45.325Z,94115.32
2017-10-22T18:32:13.373Z,94118.80
2017-10-22T18:34:41.291Z,94115.72
2017-10-22T18:37:09.093Z,94115.32
2017-10-22T18:39:37.078Z,94117.37
2017-10-22T18:42:04.916Z,94114.30
2017-10-22T18:44:32.787Z,94123.67
2017-10-22T18:47:00.603Z,94130.64
2017-10-22T18:49:28.345Z,94133.72
2017-10-22T18:51:56.158Z,94134.61
2017-10-22T18:54:23.923Z,94129.64
2017-10-22T18:56:51.733Z,94137.81
2017-10-22T18:59:19.485Z,94132.83
2017-10-22T19:01:48.477Z,94133.42
2017-10-22T19:04:16.391Z,94126.06
2017-10-22T19:06:45.578Z,94130.83
2017-10-22T19:09:13.406Z,94137.39
2017-10-22T19:11:41.105Z,94142.47
2017-10-22T19:14:08.817Z,94137.69
2017-10-22T19:16:36.558Z,94137.82
2017-10-22T19:19:04.266Z,94132.45
2017-10-22T19:21:32.003Z,94146.56
2017-10-22T19:23:59.679Z,94139.28
2017-10-22T19:26:27.470Z,94131.85
2017-10-22T19:28:55.180Z,94128.86
2017-10-22T19:31:22.936Z,94127.67
2017-10-22T19:33:50.692Z,94128.56
2017-10-22T19:36:18.465Z,94125.69
2017-10-22T19:38:46.193Z,94126.38
2017-10-22T19:41:14.503Z,94126.47
2017-10-22T19:43:42.214Z,94128.98
2017-10-22T19:46:10.830Z,94124.99
2017-10-22T19:48:38.619Z,94131.15
2017-10-22T19:53:57.049Z,94133.34
2017-10-22T19:56:24.849Z,94133.75
2017-10-22T19:58:52.557Z,94129.06
2017-10-22T20:01:20.316Z,94133.06
2017-10-22T20:03:48.057Z,94135.15
2017-10-22T20:06:15.760Z,94128.27
2017-10-22T20:08:43.576Z,94135.44
2017-10-22T20:11:11.285Z,94136.92
2017-10-22T20:13:40.232Z,94128.78
2017-10-22T20:16:07.977Z,94130.45
2017-10-22T20:18:35.797Z,94129.75
2017-10-22T20:21:03.576Z,94133.16
2017-10-22T20:23:31.388Z,94137.91
2017-10-22T20:25:59.262Z,94126.38
2017-10-22T20:28:27.018Z,94124.59
2017-10-22T20:30:55.215Z,94130.07
2017-10-22T20:33:22.998Z,94119.64
2017-10-22T20:35:50.702Z,94113.66
2017-10-22T20:38:19.460Z,94114.55
2017-10-22T20:40:47.316Z,94111.28
2017-10-22T20:43:15.107Z,94110.48
2017-10-22T20:45:42.923Z,94102.14
2017-10-22T20:48:10.696Z,94101.44
2017-10-22T20:50:38.452Z,94093.29
2017-10-22T20:53:06.933Z,94087.63
2017-10-22T20:55:34.776Z,94075.60
2017-10-22T20:58:02.870Z,94073.91
2017-10-22T21:00:30.686Z,94078.78
2017-10-22T21:02:58.391Z,94082.86
2017-10-22T21:05:26.491Z,94082.95
2017-10-22T21:07:54.532Z,94077.39
2017-10-22T21:10:22.372Z,94076.09
2017-10-22T21:12:50.170Z,94074.62
2017-10-22T21:15:17.905Z,94075.20
2017-10-22T21:17:45.633Z,94082.08
2017-10-22T21:20:13.666Z,94077.22
2017-10-22T21:22:41.375Z,94073.61
2017-10-22T21:25:09.242Z,94067.05
2017-10-22T21:27:36.963Z,94070.33
2017-10-22T21:30:04.932Z,94072.64
2017-10-22T21:32:32.654Z,94075.70
2017-10-22T21:35:00.452Z,94073.61
2017-10-22T21:37:28.258Z,94069.66
2017-10-22T21:39:56.028Z,94064.59
2017-10-22T21:42:23.831Z,94064.88
2017-10-22T21:44:51.578Z,94059.81
2017-10-22T21:47:19.274Z,94054.16
2017-10-22T21:49:47.137Z,94054.55
2017-10-22T21:52:14.884Z,94049.28
2017-10-22T21:54:42.652Z,94038.56
2017-10-22T21:57:10.355Z,94039.34
2017-10-22T21:59:38.110Z,94032.50
2017-10-22T22:02:07.158Z,94035.67
2017-10-22T22:04:34.857Z,94031.50
2017-10-22T22:07:02.612Z,94031.20
2017-10-22T22:09:30.324Z,94039.75
2017-10-22T22:11:58.864Z,94035.20
2017-10-22T22:14:27.811Z,94039.86
2017-10-22T22:16:55.595Z,94041.53
2017-10-22T22:19:23.441Z,94042.25
2017-10-22T22:21:51.179Z,94039.17
2017-10-22T22:24:18.938Z,94040.16
2017-10-22T22:26:46.740Z,94038.07
2017-10-22T22:29:14.440Z,94037.67
2017-10-22T22:31:42.174Z,94040.53
2017-10-22T22:34:09.952Z,94028.64
2017-10-22T22:36:37.692Z,94022.98
2017-10-22T22:39:05.512Z,94009.07
2017-10-22T22:41:33.224Z,94011.06
2017-10-22T22:44:00.903Z,94017.62
2017-10-22T22:46:28.651Z,94016.30
2017-10-22T22:48:56.392Z,94013.24
2017-10-22T22:51:24.153Z,94014.11
2017-10-22T22:53:51.828Z,94012.33
2017-10-22T22:56:19.590Z,94005.47
2017-10-22T22:58:48.217Z,94005.97
2017-10-22T23:01:15.925Z,93998.22
2017-10-22T23:03:43.681Z,94001.30
2017-10-22T23:06:11.376Z,93989.58
2017-10-22T23:08:39.124Z,93996.43
2017-10-22T23:11:07.183Z,93990.87
2017-10-22T23:13:34.935Z,93988.78
2017-10-22T23:16:02.678Z,93995.53
2017-10-22T23:18:30.675Z,94002.30
2017-10-22T23:20:58.360Z,94001.00
2017-10-22T23:23:26.065Z,94005.87
2017-10-22T23:25:53.822Z,94002.09
2017-10-22T23:28:21.533Z,94004.28
2017-10-22T23:30:49.236Z,94003.98
2017-10-22T23:33:16.988Z,94007.16
2017-10-22T23:35:44.700Z,94006.36
2017-10-22T23:38:12.457Z,94003.88
2017-10-22T23:40:40.158Z,93994.05
2017-10-22T23:43:07.901Z,93988.19
2017-10-22T23:45:35.655Z,93982.33
2017-10-22T23:48:03.614Z,93982.13
2017-10-22T23:50:31.427Z,93978.45
2017-10-22T23:52:59.119Z,93972.98
2017-10-22T23:55:26.823Z,93969.21
2017-10-22T23:57:54.551Z,93968.81
